Angul, India

12:51 AM IST on August 30, 2014 (GMT +0530)
Bhubaneswar | Change Station
CLOSE
Current Station
Airport
Location: Bhubaneswar,
Elevation: 151 ft
Nearby Weather Stations

Elev 151 ft 20.24 °N, 85.82 °E | Updated 1 day ago

Rain
Rain
78 °F
Feels Like 78 °F
N
5
Wind Variable Wind from East
Gusts mph

Today
High -- | Low -- °F
--% Chance of Precip.
Yesterday
High -- | Low -- °F
Precip. -- in
5:32 AM 6:07 PM
Waxing Crescent, 16% visible
Pressure 29.62 in
Visibility 1.9 miles
Clouds Scattered Clouds 1800 ft
Few 3000 ft
Scattered Clouds 10000 ft
Dew Point 77 °F
Humidity 95%
Rainfall 0.00 in
Snow Depth Not available.
UV 10 out of 12
Pollen Not available.
Air Quality Not available.
Flu Activity Not available.
METAR VEBS 280400Z 04005KT 3000 HZ SCT018 FEW030CB SCT100 29/27 Q1003 TEMPO 2000 TSRA

More Conditions Fewer Conditions

Pressure 29.62 in
Visibility 1.9 miles
Clouds Scattered Clouds 1800 ft
Few 3000 ft
Scattered Clouds 10000 ft
Dew Point 77 °F
Humidity 95%
Rainfall 0.00 in
Snow Depth Not available.
UV 10 out of 12
Pollen Not available.
Air Quality Not available.
Flu Activity Not available.
METAR VEBS 280400Z 04005KT 3000 HZ SCT018 FEW030CB SCT100 29/27 Q1003 TEMPO 2000 TSRA

More Conditions Fewer Conditions

10-Day Weather Forecast

Almanac

Astronomy

Aug. 30, 2014 Rise Set
Actual Time 5:32 AM IST 6:07 PM IST
Civil Twilight 5:10 AM IST 6:30 PM IST
Nautical Twilight 4:43 AM IST 6:56 PM IST
Astronomical Twilight 4:17 AM IST 7:23 PM IST
Moon 9:14 AM IST (8/30) 9:03 PM IST (8/30)
Length of Visible Light 13h 19m
Length of Day
12h 34m
Tomorrow will be 1m 8s shorter.
Waxing Crescent, 16% of the Moon is Illuminated
Aug 29
Waxing Crescent
Sep 2
First Quarter
Sep 8
Full
Sep 15
Last Quarter
Sep 24
New

Yesterday's Extremes

Country Highs Country Lows

Community

WunderPhotos

Upload Photos

1,748,315 photos uploaded!

WunderBlogs® & News

By Dr. Jeff Masters
Director of Meteorology, Weather Underground
By Kari Strenfel
Meteorologist, Weather Underground
By Christopher C. Burt
Weather Historian, Weather Underground
August 29, 2014
August 29, 2014
August 29, 2014

Nearby

Snow Depth

Not available.

Earthquake Activity

City Distance Mag. Time & Date
No recent earthquake activity has been reported nearby.
Minimum magnitude displayed is 2.5.

Coastal Water Temperatures

Place Temperature
No Stations Reporting

Nearby Weather Stations